createdAt,value
2022-11-07T00:01:36.814Z,101554.00
2022-11-07T00:04:04.095Z,101554.00
2022-11-07T00:06:31.933Z,101537.28
2022-11-07T00:08:59.467Z,101543.59
2022-11-07T00:11:26.661Z,101556.00
2022-11-07T00:13:54.417Z,101523.22
2022-11-07T00:16:21.684Z,101547.88
2022-11-07T00:18:48.860Z,101538.22
2022-11-07T00:21:15.858Z,101517.09
2022-11-07T00:23:43.157Z,101547.13
2022-11-07T00:26:13.578Z,101538.44
2022-11-07T00:28:42.994Z,101530.47
2022-11-07T00:31:11.837Z,101539.53
2022-11-07T00:33:39.219Z,101541.19
2022-11-07T00:36:07.127Z,101537.69
2022-11-07T00:38:34.227Z,101536.72
2022-11-07T00:41:03.782Z,101526.22
2022-11-07T00:43:31.787Z,101536.84
2022-11-07T00:46:02.799Z,101541.25
2022-11-07T00:48:30.714Z,101524.47
2022-11-07T00:50:57.918Z,101534.47
2022-11-07T00:53:25.060Z,101528.34
2022-11-07T00:55:52.098Z,101532.06
2022-11-07T00:58:19.323Z,101529.38
2022-11-07T01:00:46.457Z,101533.78
2022-11-07T01:03:31.933Z,101514.28
2022-11-07T01:06:01.829Z,101535.75
2022-11-07T01:08:30.133Z,101520.72
2022-11-07T01:10:57.872Z,101536.69
2022-11-07T01:13:27.081Z,101509.34
2022-11-07T01:15:54.646Z,101531.47
2022-11-07T01:18:22.013Z,101546.53
2022-11-07T01:20:49.901Z,101545.72
2022-11-07T01:23:18.269Z,101534.38
2022-11-07T01:25:45.843Z,101529.22
2022-11-07T01:28:12.909Z,101537.28
2022-11-07T01:30:41.966Z,101538.63
2022-11-07T01:33:09.360Z,101531.53
2022-11-07T01:35:36.961Z,101539.50
2022-11-07T01:38:04.559Z,101522.88
2022-11-07T01:40:33.965Z,101535.16
2022-11-07T01:43:01.200Z,101541.41
2022-11-07T01:45:31.697Z,101526.00
2022-11-07T01:48:02.143Z,101541.16
2022-11-07T01:50:30.283Z,101547.13
2022-11-07T01:52:58.250Z,101538.31
2022-11-07T01:55:32.424Z,101547.00
2022-11-07T01:58:05.117Z,101539.97
2022-11-07T02:00:34.454Z,101523.06
2022-11-07T02:03:13.218Z,101542.75
2022-11-07T02:05:51.314Z,101536.53
2022-11-07T02:08:19.600Z,101531.81
2022-11-07T02:10:46.833Z,101534.38
2022-11-07T02:13:23.712Z,101541.31
2022-11-07T02:15:51.268Z,101526.88
2022-11-07T02:18:18.469Z,101541.88
2022-11-07T02:20:46.849Z,101546.19
2022-11-07T02:23:21.199Z,101540.75
2022-11-07T02:25:48.885Z,101538.03
2022-11-07T02:28:17.028Z,101531.78
2022-11-07T02:30:44.229Z,101539.47
2022-11-07T02:33:20.666Z,101526.97
2022-11-07T02:35:50.700Z,101531.38
2022-11-07T02:38:22.731Z,101527.66
2022-11-07T02:41:04.175Z,101519.56
2022-11-07T02:43:33.948Z,101536.25
2022-11-07T02:46:04.724Z,101537.13
2022-11-07T02:48:39.877Z,101515.84
2022-11-07T02:51:06.981Z,101523.78
2022-11-07T02:53:34.029Z,101518.47
2022-11-07T02:56:01.147Z,101532.47
2022-11-07T02:58:28.140Z,101515.91
2022-11-07T03:00:55.363Z,101521.91
2022-11-07T03:03:22.441Z,101521.19
2022-11-07T03:05:50.329Z,101502.63
2022-11-07T03:08:17.541Z,101515.13
2022-11-07T03:10:44.746Z,101508.28
2022-11-07T03:13:12.160Z,101520.56
2022-11-07T03:15:39.494Z,101523.22
2022-11-07T03:18:06.568Z,101524.16
2022-11-07T03:20:33.730Z,101497.78
2022-11-07T03:23:00.882Z,101521.66
2022-11-07T03:25:27.894Z,101505.59
2022-11-07T03:27:55.114Z,101521.66
2022-11-07T03:30:22.318Z,101517.44
2022-11-07T03:32:52.446Z,101512.22
2022-11-07T03:35:20.188Z,101506.09
2022-11-07T03:37:47.988Z,101453.91
2022-11-07T03:40:15.457Z,101517.66
2022-11-07T03:42:44.472Z,101508.88
2022-11-07T03:45:14.057Z,101513.50
2022-11-07T03:47:43.231Z,101490.41
2022-11-07T03:50:15.165Z,101507.16
2022-11-07T03:52:42.793Z,101515.00
2022-11-07T03:55:10.673Z,101501.75
2022-11-07T03:57:38.004Z,101511.44
2022-11-07T04:00:07.689Z,101512.38
2022-11-07T04:02:44.099Z,101508.00
2022-11-07T04:05:12.622Z,101506.22
2022-11-07T04:07:39.707Z,101481.38
2022-11-07T04:10:07.082Z,101480.59
2022-11-07T04:12:52.667Z,101500.09
2022-11-07T04:15:38.026Z,101489.38
2022-11-07T04:18:05.337Z,101486.66
2022-11-07T04:20:32.498Z,101486.78
2022-11-07T04:22:59.523Z,101484.09
2022-11-07T04:25:45.081Z,101483.22
2022-11-07T04:28:12.265Z,101471.81
2022-11-07T04:30:39.457Z,101484.13
2022-11-07T04:33:06.573Z,101458.41
2022-11-07T04:35:34.276Z,101483.03
2022-11-07T04:38:01.841Z,101463.47
2022-11-07T04:40:30.011Z,101477.50
2022-11-07T04:42:57.684Z,101480.91
2022-11-07T04:45:24.827Z,101457.88
2022-11-07T04:47:52.179Z,101450.84
2022-11-07T04:50:20.417Z,101466.63
2022-11-07T04:52:51.854Z,101466.56
2022-11-07T04:55:24.734Z,101465.47
2022-11-07T04:57:52.847Z,101468.84
2022-11-07T05:00:21.158Z,101467.84
2022-11-07T05:02:49.310Z,101455.53
2022-11-07T05:05:17.963Z,101435.91
2022-11-07T05:07:45.131Z,101442.34
2022-11-07T05:10:27.765Z,101450.25
2022-11-07T05:12:56.798Z,101427.09
2022-11-07T05:15:24.588Z,101450.13
2022-11-07T05:17:51.805Z,101444.13
2022-11-07T05:20:29.722Z,101443.22
2022-11-07T05:23:13.000Z,101415.72
2022-11-07T05:25:49.625Z,101453.53
2022-11-07T05:28:28.381Z,101454.31
2022-11-07T05:31:02.800Z,101449.88
2022-11-07T05:33:30.233Z,101455.06
2022-11-07T05:35:57.367Z,101408.00
2022-11-07T05:38:24.391Z,101461.91
2022-11-07T05:40:51.554Z,101461.81
2022-11-07T05:43:18.890Z,101468.75
2022-11-07T05:45:46.206Z,101460.09
2022-11-07T05:48:14.106Z,101455.66
2022-11-07T05:50:41.743Z,101468.75
2022-11-07T05:53:09.226Z,101466.88
2022-11-07T05:55:36.620Z,101456.38
2022-11-07T05:58:12.619Z,101465.19
2022-11-07T06:00:41.909Z,101459.72
2022-11-07T06:03:09.534Z,101457.06
2022-11-07T06:05:41.133Z,101462.31
2022-11-07T06:08:11.054Z,101462.19
2022-11-07T06:10:39.414Z,101470.03
2022-11-07T06:13:08.960Z,101452.38
2022-11-07T06:15:38.009Z,101446.00
2022-11-07T06:18:07.578Z,101457.66
2022-11-07T06:20:35.693Z,101459.44
2022-11-07T06:23:06.288Z,101461.94
2022-11-07T06:25:33.894Z,101455.69
2022-11-07T06:28:03.672Z,101445.06
2022-11-07T06:30:34.505Z,101455.50
2022-11-07T06:33:11.705Z,101453.75
2022-11-07T06:35:39.287Z,101450.25
2022-11-07T06:38:10.392Z,101436.75
2022-11-07T06:40:38.491Z,101456.25
2022-11-07T06:43:10.716Z,101436.53
2022-11-07T06:45:38.682Z,101468.75
2022-11-07T06:48:06.672Z,101482.09
2022-11-07T06:50:35.356Z,101460.16
2022-11-07T06:53:07.753Z,101476.03
2022-11-07T06:55:36.096Z,101482.81
2022-11-07T06:58:03.917Z,101467.69
2022-11-07T07:00:33.520Z,101456.03
2022-11-07T07:03:00.858Z,101450.75
2022-11-07T07:05:28.004Z,101478.00
2022-11-07T07:07:56.268Z,101484.91
2022-11-07T07:10:25.454Z,101480.34
2022-11-07T07:12:56.792Z,101480.22
2022-11-07T07:15:24.170Z,101477.44
2022-11-07T07:17:51.491Z,101485.38
2022-11-07T07:20:18.668Z,101493.91
2022-11-07T07:22:48.270Z,101479.75
2022-11-07T07:25:18.992Z,101485.06
2022-11-07T07:27:46.238Z,101491.06
2022-11-07T07:30:14.195Z,101491.91
2022-11-07T07:32:41.395Z,101488.47
2022-11-07T07:35:09.593Z,101491.84
2022-11-07T07:37:36.862Z,101499.78
2022-11-07T07:40:04.316Z,101492.66
2022-11-07T07:42:31.855Z,101498.00
2022-11-07T07:44:59.415Z,101504.94
2022-11-07T07:47:26.636Z,101506.88
2022-11-07T07:49:53.793Z,101497.94
2022-11-07T07:52:20.910Z,101503.34
2022-11-07T07:54:48.069Z,101501.59
2022-11-07T07:57:15.142Z,101488.97
2022-11-07T07:59:42.282Z,101518.09
2022-11-07T08:02:12.558Z,101495.22
2022-11-07T08:04:41.416Z,101512.94
2022-11-07T08:07:08.962Z,101502.28
2022-11-07T08:09:38.784Z,101509.84
2022-11-07T08:12:09.063Z,101494.72
2022-11-07T08:14:36.283Z,101506.25
2022-11-07T08:17:03.915Z,101529.38
2022-11-07T08:19:31.184Z,101519.16
2022-11-07T08:21:58.488Z,101526.94
2022-11-07T08:24:25.542Z,101507.84
2022-11-07T08:26:52.692Z,101525.03
2022-11-07T08:29:19.884Z,101525.03
2022-11-07T08:31:51.149Z,101528.38
2022-11-07T08:34:18.830Z,101526.69
2022-11-07T08:36:45.923Z,101532.09
2022-11-07T08:39:13.057Z,101532.03
2022-11-07T08:41:40.094Z,101523.00
2022-11-07T08:44:09.509Z,101528.97
2022-11-07T08:46:37.608Z,101524.97
2022-11-07T08:49:05.051Z,101536.53
2022-11-07T08:51:33.458Z,101533.34
2022-11-07T08:54:00.616Z,101526.31
2022-11-07T08:56:27.668Z,101531.53
2022-11-07T08:58:54.973Z,101528.09
2022-11-07T09:01:22.230Z,101516.75
2022-11-07T09:03:57.581Z,101521.50
2022-11-07T09:06:25.494Z,101519.91
2022-11-07T09:08:52.798Z,101519.13
2022-11-07T09:11:22.301Z,101499.50
2022-11-07T09:13:51.902Z,101519.03
2022-11-07T09:16:20.141Z,101527.88
2022-11-07T09:18:49.213Z,101531.41
2022-11-07T09:21:22.143Z,101530.25
2022-11-07T09:23:49.974Z,101534.28
2022-11-07T09:26:17.390Z,101504.34
2022-11-07T09:28:48.458Z,101499.25
2022-11-07T09:31:18.887Z,101527.38
2022-11-07T09:33:45.934Z,101528.22
2022-11-07T09:36:13.337Z,101531.78
2022-11-07T09:38:40.533Z,101533.94
2022-11-07T09:41:28.263Z,101498.34
2022-11-07T09:43:55.668Z,101530.22
2022-11-07T09:46:53.857Z,101526.50
2022-11-07T09:49:35.565Z,101492.25
2022-11-07T09:52:41.217Z,101514.50
2022-11-07T09:55:17.632Z,101514.88
2022-11-07T09:57:45.989Z,101500.94
2022-11-07T10:00:20.385Z,101512.22
2022-11-07T10:02:51.273Z,101502.84
2022-11-07T10:05:33.709Z,101514.38
2022-11-07T10:08:14.821Z,101507.81
2022-11-07T10:11:07.112Z,101517.34
2022-11-07T10:13:49.807Z,101521.22
2022-11-07T10:16:57.089Z,101509.06
2022-11-07T10:19:44.735Z,101507.44
2022-11-07T10:22:28.775Z,101514.50
2022-11-07T10:25:14.199Z,101513.59
2022-11-07T10:27:41.327Z,101506.13
2022-11-07T10:30:21.003Z,101485.84
2022-11-07T10:33:04.528Z,101474.03
2022-11-07T10:35:35.054Z,101478.50
2022-11-07T10:38:15.092Z,101488.19
2022-11-07T10:40:44.043Z,101460.31
2022-11-07T10:43:40.124Z,101478.19
2022-11-07T10:46:15.919Z,101479.31
2022-11-07T10:48:53.937Z,101453.59
2022-11-07T10:51:21.142Z,101474.94
2022-11-07T10:53:48.224Z,101469.94
2022-11-07T10:56:19.598Z,101462.25
2022-11-07T10:58:46.909Z,101438.38
2022-11-07T11:01:14.283Z,101473.81
2022-11-07T11:03:45.583Z,101458.06
2022-11-07T11:06:19.244Z,101463.50
2022-11-07T11:08:47.289Z,101456.44
2022-11-07T11:11:28.454Z,101445.00
2022-11-07T11:14:03.271Z,101457.44
2022-11-07T11:16:31.592Z,101457.63
2022-11-07T11:19:01.277Z,101452.47
2022-11-07T11:21:40.386Z,101456.19
2022-11-07T11:24:22.265Z,101413.91
2022-11-07T11:26:52.386Z,101433.25
2022-11-07T11:29:52.105Z,101415.75
2022-11-07T11:32:33.238Z,101409.00
2022-11-07T11:35:08.578Z,101425.88
2022-11-07T11:37:41.737Z,101405.75
2022-11-07T11:40:15.466Z,101409.38
2022-11-07T11:43:00.837Z,101415.75
2022-11-07T11:45:39.865Z,101402.41
2022-11-07T11:48:15.860Z,101404.13
2022-11-07T11:50:51.935Z,101400.75
2022-11-07T11:53:22.344Z,101354.16
2022-11-07T11:56:14.246Z,101387.75
2022-11-07T11:59:14.084Z,101381.63
2022-11-07T12:02:17.626Z,101368.53
2022-11-07T12:05:11.817Z,101360.00
2022-11-07T12:08:09.935Z,101356.41
2022-11-07T12:11:00.163Z,101341.59
2022-11-07T12:13:39.532Z,101334.66
2022-11-07T12:16:14.027Z,101322.41
2022-11-07T12:18:55.382Z,101330.34
2022-11-07T12:21:44.660Z,101325.13
2022-11-07T12:24:23.632Z,101321.56
2022-11-07T12:27:00.803Z,101304.06
2022-11-07T12:29:49.756Z,101308.63
2022-11-07T12:32:38.863Z,101302.31
2022-11-07T12:35:17.083Z,101299.81
2022-11-07T12:37:50.341Z,101299.84
2022-11-07T12:40:43.636Z,101290.94
2022-11-07T12:43:28.802Z,101283.09
2022-11-07T12:46:14.434Z,101275.19
2022-11-07T12:48:50.775Z,101268.34
2022-11-07T12:51:26.232Z,101251.56
2022-11-07T12:54:19.584Z,101255.09
2022-11-07T12:56:48.335Z,101254.38
2022-11-07T12:59:28.611Z,101254.44
2022-11-07T13:02:26.452Z,101243.03
2022-11-07T13:04:57.000Z,101239.41
2022-11-07T13:07:51.028Z,101231.53
2022-11-07T13:10:40.465Z,101220.00
2022-11-07T13:13:18.104Z,101227.97
2022-11-07T13:16:13.493Z,101225.41
2022-11-07T13:18:35.375Z,101214.06
2022-11-07T13:21:04.667Z,101186.75
2022-11-07T13:23:32.184Z,101189.38
2022-11-07T13:26:10.644Z,101197.28
2022-11-07T13:29:21.931Z,101197.28
2022-11-07T13:32:05.274Z,101192.03
2022-11-07T13:35:00.152Z,101183.25
2022-11-07T13:37:33.714Z,101177.09
2022-11-07T13:40:06.373Z,101157.72
2022-11-07T13:42:35.046Z,101182.44
2022-11-07T13:45:25.729Z,101178.94
2022-11-07T13:47:59.752Z,101173.66
2022-11-07T13:50:40.229Z,101167.50
2022-11-07T13:53:17.995Z,101167.50
2022-11-07T13:55:55.668Z,101153.44
2022-11-07T13:58:24.745Z,101135.88
2022-11-07T14:00:51.959Z,101130.59
2022-11-07T14:03:27.824Z,101135.00
2022-11-07T14:05:56.706Z,101151.69
2022-11-07T14:08:33.419Z,101113.88
2022-11-07T14:11:02.375Z,101137.59
2022-11-07T14:13:40.998Z,101128.84
2022-11-07T14:16:24.624Z,101127.94
2022-11-07T14:18:57.066Z,101125.31
2022-11-07T14:21:30.923Z,101135.88
2022-11-07T14:23:59.061Z,101135.84
2022-11-07T14:26:34.066Z,101127.03
2022-11-07T14:29:02.801Z,101113.88
2022-11-07T14:31:36.276Z,101109.47
2022-11-07T14:34:16.288Z,101104.22
2022-11-07T14:36:58.282Z,101105.09
2022-11-07T14:39:28.663Z,101091.06
2022-11-07T14:41:58.114Z,101090.16
2022-11-07T14:44:54.387Z,101075.22
2022-11-07T14:47:34.107Z,101077.84
2022-11-07T14:50:05.652Z,101087.53
2022-11-07T14:52:37.974Z,101064.66
2022-11-07T14:55:21.090Z,101059.41
2022-11-07T14:57:48.875Z,101053.25
2022-11-07T15:00:18.509Z,101045.31
2022-11-07T15:02:48.523Z,101051.50
2022-11-07T15:05:42.086Z,101048.81
2022-11-07T15:08:25.570Z,101017.19
2022-11-07T15:10:59.669Z,101028.59
2022-11-07T15:13:27.447Z,101027.72
2022-11-07T15:16:07.199Z,101033.88
2022-11-07T15:18:44.041Z,100992.59
2022-11-07T15:21:33.251Z,101022.44
2022-11-07T15:24:21.412Z,101019.84
2022-11-07T15:27:02.132Z,101018.94
2022-11-07T15:29:36.164Z,101019.84
2022-11-07T15:32:15.607Z,100992.59
2022-11-07T15:37:30.966Z,101014.53
2022-11-07T15:39:58.053Z,101011.88
2022-11-07T15:42:25.158Z,100976.75
2022-11-07T15:44:52.260Z,101002.22
2022-11-07T15:47:22.302Z,100996.03
2022-11-07T15:49:52.386Z,100989.88
2022-11-07T15:52:19.544Z,100978.47
2022-11-07T15:54:46.753Z,100999.53
2022-11-07T15:57:14.134Z,100996.03
2022-11-07T15:59:41.649Z,100995.13
2022-11-07T16:02:15.287Z,100991.59
2022-11-07T16:04:44.004Z,100989.81
2022-11-07T16:07:17.171Z,100966.13
2022-11-07T16:09:44.327Z,100997.72
2022-11-07T16:12:16.291Z,100967.81
2022-11-07T16:14:44.853Z,100971.38
2022-11-07T16:17:17.142Z,100967.84
2022-11-07T16:19:44.824Z,100966.06
2022-11-07T16:22:15.663Z,100979.22
2022-11-07T16:24:42.740Z,100975.69
2022-11-07T16:27:16.546Z,100976.47
2022-11-07T16:29:44.489Z,100971.16
2022-11-07T16:32:18.015Z,100965.00
2022-11-07T16:34:46.692Z,100955.28
2022-11-07T16:37:16.645Z,100967.56
2022-11-07T16:39:43.761Z,100971.03
2022-11-07T16:42:16.406Z,100964.03
2022-11-07T16:44:43.585Z,100969.22
2022-11-07T16:47:18.240Z,100945.47
2022-11-07T16:49:46.208Z,100953.38
2022-11-07T16:52:15.264Z,100967.38
2022-11-07T16:54:43.514Z,100954.19
2022-11-07T16:57:16.352Z,100948.00
2022-11-07T16:59:46.965Z,100943.59
2022-11-07T17:02:21.668Z,100938.22
2022-11-07T17:04:54.069Z,100952.22
2022-11-07T17:07:23.299Z,100955.69
2022-11-07T17:09:50.710Z,100937.19
2022-11-07T17:12:22.690Z,100937.09
2022-11-07T17:14:50.565Z,100955.44
2022-11-07T17:17:18.832Z,100952.72
2022-11-07T17:19:46.955Z,100950.09
2022-11-07T17:22:15.967Z,100956.13
2022-11-07T17:24:46.340Z,100949.91
2022-11-07T17:27:21.665Z,100941.06
2022-11-07T17:29:49.453Z,100960.34
2022-11-07T17:32:16.456Z,100948.06
2022-11-07T17:34:44.089Z,100946.25
2022-11-07T17:37:24.893Z,100914.53
2022-11-07T17:39:52.137Z,100946.97
2022-11-07T17:42:19.402Z,100947.88
2022-11-07T17:44:46.397Z,100953.13
2022-11-07T17:47:30.578Z,100948.69
2022-11-07T17:49:58.643Z,100921.41
2022-11-07T17:52:26.013Z,100935.47
2022-11-07T17:54:55.094Z,100926.53
2022-11-07T17:57:22.412Z,100930.94
2022-11-07T17:59:50.144Z,100932.63
2022-11-07T18:02:19.584Z,100941.41
2022-11-07T18:04:49.814Z,100943.94
2022-11-07T18:07:17.208Z,100940.34
2022-11-07T18:09:45.254Z,100921.88
2022-11-07T18:12:12.439Z,100944.56
2022-11-07T18:14:39.633Z,100943.72
2022-11-07T18:17:07.011Z,100929.59
2022-11-07T18:19:34.897Z,100910.19
2022-11-07T18:22:02.095Z,100928.59
2022-11-07T18:24:30.297Z,100929.41
2022-11-07T18:26:57.504Z,100912.59
2022-11-07T18:29:25.435Z,100941.59
2022-11-07T18:31:52.803Z,100909.84
2022-11-07T18:34:20.670Z,100930.91
2022-11-07T18:36:48.489Z,100929.13
2022-11-07T18:39:22.495Z,100917.69
2022-11-07T18:41:52.387Z,100912.41
2022-11-07T18:44:20.296Z,100907.03
2022-11-07T18:46:47.987Z,100899.03
2022-11-07T18:49:16.398Z,100899.03
2022-11-07T18:51:44.164Z,100902.47
2022-11-07T18:54:14.049Z,100897.13
2022-11-07T18:56:42.582Z,100872.47
2022-11-07T18:59:10.956Z,100898.84
2022-11-07T19:01:38.388Z,100900.59
2022-11-07T19:04:06.907Z,100892.75
2022-11-07T19:06:34.560Z,100893.63
2022-11-07T19:09:01.921Z,100898.00
2022-11-07T19:11:30.926Z,100876.13
2022-11-07T19:14:04.161Z,100887.53
2022-11-07T19:16:31.889Z,100883.16
2022-11-07T19:19:00.130Z,100870.00
2022-11-07T19:21:29.471Z,100868.22
2022-11-07T19:23:56.824Z,100845.50
2022-11-07T19:26:25.512Z,100848.97
2022-11-07T19:28:58.051Z,100860.38
2022-11-07T19:31:28.452Z,100851.72
2022-11-07T19:33:58.253Z,100859.63
2022-11-07T19:36:25.623Z,100854.38
2022-11-07T19:38:53.939Z,100840.41
2022-11-07T19:41:21.768Z,100840.41
2022-11-07T19:43:50.228Z,100842.34
2022-11-07T19:46:22.212Z,100838.84
2022-11-07T19:48:51.793Z,100833.59
2022-11-07T19:51:23.194Z,100821.56
2022-11-07T19:53:59.363Z,100817.97
2022-11-07T19:56:30.466Z,100820.59
2022-11-07T19:58:59.716Z,100811.00
2022-11-07T20:01:29.769Z,100805.94
2022-11-07T20:04:01.269Z,100794.59
2022-11-07T20:06:33.330Z,100772.69
2022-11-07T20:09:01.727Z,100802.56
2022-11-07T20:11:29.401Z,100778.78
2022-11-07T20:14:02.763Z,100797.38
2022-11-07T20:16:31.047Z,100800.91
2022-11-07T20:18:58.223Z,100808.94
2022-11-07T20:21:25.842Z,100814.31
2022-11-07T20:23:57.356Z,100805.63
2022-11-07T20:26:26.935Z,100815.41
2022-11-07T20:28:54.444Z,100776.84
2022-11-07T20:31:25.549Z,100783.81
2022-11-07T20:33:53.289Z,100810.34
2022-11-07T20:36:21.433Z,100800.75
2022-11-07T20:38:48.791Z,100785.00
2022-11-07T20:41:16.213Z,100789.34
2022-11-07T20:43:43.997Z,100792.94
2022-11-07T20:46:15.042Z,100803.56
2022-11-07T20:48:42.614Z,100792.19
2022-11-07T20:51:12.837Z,100803.59
2022-11-07T20:53:44.198Z,100800.13
2022-11-07T20:56:14.826Z,100786.28
2022-11-07T20:58:43.214Z,100763.31
2022-11-07T21:01:17.922Z,100769.44
2022-11-07T21:03:45.464Z,100788.94
2022-11-07T21:06:13.397Z,100771.38
2022-11-07T21:08:47.144Z,100764.22
2022-11-07T21:11:16.327Z,100797.53
2022-11-07T21:13:49.722Z,100803.56
2022-11-07T21:16:21.861Z,100797.41
2022-11-07T21:18:53.573Z,100804.41
2022-11-07T21:21:27.634Z,100805.25
2022-11-07T21:23:57.379Z,100806.06
2022-11-07T21:26:33.697Z,100812.94
2022-11-07T21:29:02.203Z,100816.44
2022-11-07T21:31:31.478Z,100808.47
2022-11-07T21:33:59.532Z,100821.56
2022-11-07T21:36:30.456Z,100799.50
2022-11-07T21:38:59.020Z,100760.75
2022-11-07T21:41:26.661Z,100809.94
2022-11-07T21:43:53.937Z,100819.50
2022-11-07T21:46:24.001Z,100819.44
2022-11-07T21:48:52.130Z,100826.47
2022-11-07T21:51:25.646Z,100824.72
2022-11-07T21:53:53.754Z,100828.94
2022-11-07T21:56:23.773Z,100824.47
2022-11-07T21:58:56.080Z,100821.72
2022-11-07T22:01:23.866Z,100812.84
2022-11-07T22:04:10.816Z,100827.84
2022-11-07T22:06:44.431Z,100812.06
2022-11-07T22:09:19.514Z,100828.69
2022-11-07T22:11:48.011Z,100803.13
2022-11-07T22:14:17.776Z,100827.78
2022-11-07T22:16:45.845Z,100805.53
2022-11-07T22:19:13.335Z,100850.34
2022-11-07T22:21:40.695Z,100844.09
2022-11-07T22:24:08.639Z,100838.88
2022-11-07T22:26:37.582Z,100838.94
2022-11-07T22:29:04.906Z,100839.81
2022-11-07T22:31:32.150Z,100819.50
2022-11-07T22:34:00.498Z,100841.34
2022-11-07T22:36:29.656Z,100838.66
2022-11-07T22:38:59.314Z,100840.41
2022-11-07T22:41:29.294Z,100822.03
2022-11-07T22:43:57.964Z,100837.66
2022-11-07T22:46:28.638Z,100837.63
2022-11-07T22:48:57.196Z,100842.88
2022-11-07T22:51:27.979Z,100804.28
2022-11-07T22:54:02.278Z,100815.69
2022-11-07T22:56:30.407Z,100802.50
2022-11-07T22:58:57.617Z,100836.72
2022-11-07T23:01:27.627Z,100838.38
2022-11-07T23:03:55.897Z,100818.16
2022-11-07T23:06:24.781Z,100833.94
2022-11-07T23:08:52.871Z,100817.19
2022-11-07T23:11:45.172Z,100816.31
2022-11-07T23:14:13.796Z,100812.69
2022-11-07T23:16:45.039Z,100796.81
2022-11-07T23:19:15.025Z,100810.97
2022-11-07T23:21:43.011Z,100818.75
2022-11-07T23:24:11.143Z,100812.59
2022-11-07T23:26:41.277Z,100816.88
2022-11-07T23:29:17.290Z,100797.53
2022-11-07T23:31:47.108Z,100813.28
2022-11-07T23:34:14.640Z,100822.06
2022-11-07T23:36:44.485Z,100824.91
2022-11-07T23:39:18.147Z,100831.78
2022-11-07T23:41:45.771Z,100829.06
2022-11-07T23:44:13.354Z,100802.63
2022-11-07T23:46:59.037Z,100836.00
2022-11-07T23:49:44.794Z,100793.97
2022-11-07T23:52:14.600Z,100812.47
2022-11-07T23:55:00.230Z,100790.44
2022-11-07T23:57:27.282Z,100809.78
